sensor_id;sensor_type;location;lat;lon;timestamp;pressure;altitude;pressure_sealevel;temperature;humidity
10712;BME280;5407;51.234;6.804;2023-07-20T00:00:09;100897.84;;;22.40;58.71
10712;BME280;5407;51.234;6.804;2023-07-20T00:02:40;100887.34;;;22.31;58.59
10712;BME280;5407;51.234;6.804;2023-07-20T00:05:07;100881.31;;;22.43;58.61
10712;BME280;5407;51.234;6.804;2023-07-20T00:07:34;100888.84;;;22.39;58.88
10712;BME280;5407;51.234;6.804;2023-07-20T00:10:01;100884.69;;;22.24;59.38
10712;BME280;5407;51.234;6.804;2023-07-20T00:12:28;100886.91;;;22.36;59.18
10712;BME280;5407;51.234;6.804;2023-07-20T00:14:56;100876.75;;;22.30;59.26
10712;BME280;5407;51.234;6.804;2023-07-20T00:17:23;100879.25;;;22.21;59.79
10712;BME280;5407;51.234;6.804;2023-07-20T00:19:50;100884.25;;;22.29;59.33
10712;BME280;5407;51.234;6.804;2023-07-20T00:22:17;100875.84;;;22.40;59.11
10712;BME280;5407;51.234;6.804;2023-07-20T00:24:43;100883.78;;;22.34;59.28
10712;BME280;5407;51.234;6.804;2023-07-20T00:27:10;100880.84;;;22.48;58.61
10712;BME280;5407;51.234;6.804;2023-07-20T00:29:37;100875.75;;;22.47;58.89
10712;BME280;5407;51.234;6.804;2023-07-20T00:32:06;100872.56;;;22.52;58.55
10712;BME280;5407;51.234;6.804;2023-07-20T00:34:34;100878.44;;;22.50;58.57
10712;BME280;5407;51.234;6.804;2023-07-20T00:37:01;100873.44;;;22.45;58.91
10712;BME280;5407;51.234;6.804;2023-07-20T00:39:28;100873.19;;;22.36;59.20
10712;BME280;5407;51.234;6.804;2023-07-20T00:41:54;100872.75;;;22.38;59.13
10712;BME280;5407;51.234;6.804;2023-07-20T00:44:21;100872.75;;;22.38;59.14
10712;BME280;5407;51.234;6.804;2023-07-20T00:46:48;100867.97;;;22.42;58.86
10712;BME280;5407;51.234;6.804;2023-07-20T00:49:16;100872.75;;;22.38;59.02
10712;BME280;5407;51.234;6.804;2023-07-20T00:51:47;100881.91;;;22.28;59.25
10712;BME280;5407;51.234;6.804;2023-07-20T00:54:15;100875.75;;;22.47;58.70
10712;BME280;5407;51.234;6.804;2023-07-20T00:56:43;100880.53;;;22.43;59.08
10712;BME280;5407;51.234;6.804;2023-07-20T00:59:12;100888.13;;;22.32;59.57
10712;BME280;5407;51.234;6.804;2023-07-20T01:01:40;100891.84;;;22.48;58.99
10712;BME280;5407;51.234;6.804;2023-07-20T01:04:08;100881.25;;;22.47;59.24
10712;BME280;5407;51.234;6.804;2023-07-20T01:06:43;100884.09;;;22.40;59.66
10712;BME280;5407;51.234;6.804;2023-07-20T01:09:16;100884.66;;;22.28;59.86
10712;BME280;5407;51.234;6.804;2023-07-20T01:11:50;100882.00;;;22.51;59.08
10712;BME280;5407;51.234;6.804;2023-07-20T01:14:18;100888.47;;;22.34;59.87
10712;BME280;5407;51.234;6.804;2023-07-20T01:16:46;100881.25;;;22.47;59.39
10712;BME280;5407;51.234;6.804;2023-07-20T01:19:15;100882.16;;;22.40;59.57
10712;BME280;5407;51.234;6.804;2023-07-20T01:21:49;100882.25;;;22.30;60.06
10712;BME280;5407;51.234;6.804;2023-07-20T01:27:41;100878.44;;;22.24;60.23
10712;BME280;5407;51.234;6.804;2023-07-20T01:30:28;100877.03;;;22.39;59.67
10712;BME280;5407;51.234;6.804;2023-07-20T01:33:03;100870.53;;;22.26;59.83
10712;BME280;5407;51.234;6.804;2023-07-20T01:35:32;100872.81;;;22.31;59.82
10712;BME280;5407;51.234;6.804;2023-07-20T01:38:00;100877.84;;;22.10;60.52
10712;BME280;5407;51.234;6.804;2023-07-20T01:40:27;100878.41;;;21.98;61.06
10712;BME280;5407;51.234;6.804;2023-07-20T01:42:55;100868.38;;;22.14;60.55
10712;BME280;5407;51.234;6.804;2023-07-20T01:45:21;100870.66;;;22.19;60.46
10712;BME280;5407;51.234;6.804;2023-07-20T01:47:48;100872.69;;;22.15;60.52
10712;BME280;5407;51.234;6.804;2023-07-20T01:50:17;100872.50;;;21.99;61.33
10712;BME280;5407;51.234;6.804;2023-07-20T01:52:44;100870.75;;;22.12;60.93
10712;BME280;5407;51.234;6.804;2023-07-20T01:55:10;100873.59;;;22.05;61.13
10712;BME280;5407;51.234;6.804;2023-07-20T01:57:37;100870.78;;;22.09;61.22
10712;BME280;5407;51.234;6.804;2023-07-20T02:00:05;100872.69;;;22.15;60.94
10712;BME280;5407;51.234;6.804;2023-07-20T02:02:41;100867.91;;;21.89;62.32
10712;BME280;5407;51.234;6.804;2023-07-20T02:05:09;100861.94;;;22.24;60.71
10712;BME280;5407;51.234;6.804;2023-07-20T02:07:37;100861.34;;;22.36;60.22
10712;BME280;5407;51.234;6.804;2023-07-20T02:10:06;100860.28;;;22.30;60.62
10712;BME280;5407;51.234;6.804;2023-07-20T02:12:34;100858.72;;;22.03;61.75
10712;BME280;5407;51.234;6.804;2023-07-20T02:15:02;100861.75;;;21.82;62.72
10712;BME280;5407;51.234;6.804;2023-07-20T02:17:29;100865.44;;;21.98;61.99
10712;BME280;5407;51.234;6.804;2023-07-20T02:19:56;100858.47;;;21.94;62.41
10712;BME280;5407;51.234;6.804;2023-07-20T02:22:24;100851.16;;;22.10;61.84
10712;BME280;5407;51.234;6.804;2023-07-20T02:24:52;100858.13;;;21.88;62.58
10712;BME280;5407;51.234;6.804;2023-07-20T02:27:19;100862.44;;;21.89;62.61
10712;BME280;5407;51.234;6.804;2023-07-20T02:29:46;100859.31;;;21.87;62.87
10712;BME280;5407;51.234;6.804;2023-07-20T02:32:13;100863.13;;;21.97;62.58
10712;BME280;5407;51.234;6.804;2023-07-20T02:34:39;100862.97;;;22.07;61.91
10712;BME280;5407;51.234;6.804;2023-07-20T02:37:06;100864.53;;;22.08;61.88
10712;BME280;5407;51.234;6.804;2023-07-20T02:39:33;100870.75;;;21.82;63.12
10712;BME280;5407;51.234;6.804;2023-07-20T02:42:01;100867.97;;;21.86;62.98
10712;BME280;5407;51.234;6.804;2023-07-20T02:44:28;100866.44;;;21.85;63.13
10712;BME280;5407;51.234;6.804;2023-07-20T02:46:55;100871.97;;;21.81;62.87
10712;BME280;5407;51.234;6.804;2023-07-20T02:49:22;100874.09;;;21.97;62.51
10712;BME280;5407;51.234;6.804;2023-07-20T02:51:49;100876.06;;;21.66;63.87
10712;BME280;5407;51.234;6.804;2023-07-20T02:54:16;100869.94;;;21.85;63.08
10712;BME280;5407;51.234;6.804;2023-07-20T02:56:43;100874.59;;;21.58;64.26
10712;BME280;5407;51.234;6.804;2023-07-20T02:59:11;100872.25;;;21.53;64.39
10712;BME280;5407;51.234;6.804;2023-07-20T03:01:38;100869.56;;;21.50;64.50
10712;BME280;5407;51.234;6.804;2023-07-20T03:04:07;100879.91;;;21.72;63.72
10712;BME280;5407;51.234;6.804;2023-07-20T03:06:35;100874.91;;;21.64;64.12
10712;BME280;5407;51.234;6.804;2023-07-20T03:09:03;100875.63;;;21.71;63.88
10712;BME280;5407;51.234;6.804;2023-07-20T03:11:31;100877.63;;;21.67;64.06
10712;BME280;5407;51.234;6.804;2023-07-20T03:13:58;100881.56;;;21.66;63.86
10712;BME280;5407;51.234;6.804;2023-07-20T03:16:26;100878.94;;;21.52;64.75
10712;BME280;5407;51.234;6.804;2023-07-20T03:18:53;100884.78;;;21.61;64.36
10712;BME280;5407;51.234;6.804;2023-07-20T03:21:20;100885.69;;;21.48;65.24
10712;BME280;5407;51.234;6.804;2023-07-20T03:23:47;100880.06;;;21.58;64.67
10712;BME280;5407;51.234;6.804;2023-07-20T03:26:14;100880.50;;;21.53;64.85
10712;BME280;5407;51.234;6.804;2023-07-20T03:28:41;100882.56;;;21.46;65.16
10712;BME280;5407;51.234;6.804;2023-07-20T03:31:09;100879.88;;;21.76;64.19
10712;BME280;5407;51.234;6.804;2023-07-20T03:33:40;100874.69;;;21.48;65.03
10712;BME280;5407;51.234;6.804;2023-07-20T03:36:07;100886.28;;;21.66;64.36
10712;BME280;5407;51.234;6.804;2023-07-20T03:38:35;100888.91;;;21.76;63.96
10712;BME280;5407;51.234;6.804;2023-07-20T03:41:02;100888.63;;;21.67;64.27
10712;BME280;5407;51.234;6.804;2023-07-20T03:43:29;100886.97;;;21.73;64.03
10712;BME280;5407;51.234;6.804;2023-07-20T03:45:56;100888.91;;;21.76;63.90
10712;BME280;5407;51.234;6.804;2023-07-20T03:48:24;100893.75;;;21.65;64.58
10712;BME280;5407;51.234;6.804;2023-07-20T03:50:54;100895.78;;;21.54;64.94
10712;BME280;5407;51.234;6.804;2023-07-20T03:53:21;100898.22;;;21.49;65.14
10712;BME280;5407;51.234;6.804;2023-07-20T03:55:48;100903.66;;;21.52;65.31
10712;BME280;5407;51.234;6.804;2023-07-20T03:58:15;100906.91;;;21.40;65.33
10712;BME280;5407;51.234;6.804;2023-07-20T04:00:44;100908.78;;;21.50;65.13
10712;BME280;5407;51.234;6.804;2023-07-20T04:03:12;100903.34;;;21.43;65.58
10712;BME280;5407;51.234;6.804;2023-07-20T04:05:39;100908.63;;;21.27;66.35
10712;BME280;5407;51.234;6.804;2023-07-20T04:08:07;100906.84;;;21.47;65.45
10712;BME280;5407;51.234;6.804;2023-07-20T04:10:34;100907.19;;;21.53;65.23
10712;BME280;5407;51.234;6.804;2023-07-20T04:13:01;100910.50;;;21.34;66.08
10712;BME280;5407;51.234;6.804;2023-07-20T04:15:28;100902.81;;;21.55;65.21
10712;BME280;5407;51.234;6.804;2023-07-20T04:17:55;100914.38;;;21.40;66.14
10712;BME280;5407;51.234;6.804;2023-07-20T04:20:23;100909.72;;;21.37;66.27
10712;BME280;5407;51.234;6.804;2023-07-20T04:22:50;100906.03;;;21.50;65.59
10712;BME280;5407;51.234;6.804;2023-07-20T04:25:19;100909.38;;;21.31;66.71
10712;BME280;5407;51.234;6.804;2023-07-20T04:27:45;100906.34;;;21.22;67.26
10712;BME280;5407;51.234;6.804;2023-07-20T04:30:13;100916.34;;;21.39;66.51
10712;BME280;5407;51.234;6.804;2023-07-20T04:32:41;100916.50;;;21.25;67.19
10712;BME280;5407;51.234;6.804;2023-07-20T04:35:10;100921.75;;;21.46;66.49
10712;BME280;5407;51.234;6.804;2023-07-20T04:37:40;100922.66;;;21.36;66.78
10712;BME280;5407;51.234;6.804;2023-07-20T04:40:15;100919.06;;;21.43;66.69
10712;BME280;5407;51.234;6.804;2023-07-20T04:42:43;100920.66;;;21.40;66.63
10712;BME280;5407;51.234;6.804;2023-07-20T04:45:10;100922.66;;;21.36;66.88
10712;BME280;5407;51.234;6.804;2023-07-20T04:47:37;100928.72;;;21.54;66.23
10712;BME280;5407;51.234;6.804;2023-07-20T04:50:05;100935.41;;;21.53;66.26
10712;BME280;5407;51.234;6.804;2023-07-20T04:52:33;100930.88;;;21.36;67.07
10712;BME280;5407;51.234;6.804;2023-07-20T04:54:59;100932.72;;;21.46;66.53
10712;BME280;5407;51.234;6.804;2023-07-20T04:57:27;100931.97;;;21.46;66.97
10712;BME280;5407;51.234;6.804;2023-07-20T04:59:55;100936.59;;;21.52;67.06
10712;BME280;5407;51.234;6.804;2023-07-20T05:02:22;100935.03;;;21.51;66.44
10712;BME280;5407;51.234;6.804;2023-07-20T05:04:49;100930.28;;;21.55;66.73
10712;BME280;5407;51.234;6.804;2023-07-20T05:07:16;100934.53;;;21.23;68.05
10712;BME280;5407;51.234;6.804;2023-07-20T05:09:43;100935.75;;;21.59;66.97
10712;BME280;5407;51.234;6.804;2023-07-20T05:12:09;100930.25;;;21.62;66.47
10712;BME280;5407;51.234;6.804;2023-07-20T05:14:38;100931.91;;;21.49;67.08
10712;BME280;5407;51.234;6.804;2023-07-20T05:17:06;100935.84;;;21.48;67.61
10712;BME280;5407;51.234;6.804;2023-07-20T05:19:33;100943.06;;;21.35;68.10
10712;BME280;5407;51.234;6.804;2023-07-20T05:22:00;100942.06;;;21.52;67.27
10712;BME280;5407;51.234;6.804;2023-07-20T05:24:27;100932.66;;;21.53;67.43
10712;BME280;5407;51.234;6.804;2023-07-20T05:26:53;100936.06;;;21.68;66.79
10712;BME280;5407;51.234;6.804;2023-07-20T05:29:20;100938.16;;;21.53;67.68
10712;BME280;5407;51.234;6.804;2023-07-20T05:31:47;100941.25;;;21.55;67.21
10712;BME280;5407;51.234;6.804;2023-07-20T05:34:15;100934.59;;;21.56;67.21
10712;BME280;5407;51.234;6.804;2023-07-20T05:36:42;100931.06;;;21.59;66.78
10712;BME280;5407;51.234;6.804;2023-07-20T05:39:09;100935.19;;;21.37;67.88
10712;BME280;5407;51.234;6.804;2023-07-20T05:41:36;100933.44;;;21.54;67.52
10712;BME280;5407;51.234;6.804;2023-07-20T05:44:03;100930.00;;;21.46;68.07
10712;BME280;5407;51.234;6.804;2023-07-20T05:46:29;100938.66;;;21.41;68.50
10712;BME280;5407;51.234;6.804;2023-07-20T05:51:34;100941.41;;;21.41;68.34
10712;BME280;5407;51.234;6.804;2023-07-20T05:54:01;100944.44;;;21.50;67.51
10712;BME280;5407;51.234;6.804;2023-07-20T05:56:28;100947.91;;;21.61;66.62
10712;BME280;5407;51.234;6.804;2023-07-20T05:58:55;100948.56;;;21.72;66.40
10712;BME280;5407;51.234;6.804;2023-07-20T06:01:22;100947.03;;;21.71;66.54
10712;BME280;5407;51.234;6.804;2023-07-20T06:03:52;100951.25;;;21.76;66.63
10712;BME280;5407;51.234;6.804;2023-07-20T06:06:19;100951.34;;;21.69;66.75
10712;BME280;5407;51.234;6.804;2023-07-20T06:08:48;100947.41;;;21.70;66.09
10712;BME280;5407;51.234;6.804;2023-07-20T06:11:15;100960.88;;;21.94;65.45
10712;BME280;5407;51.234;6.804;2023-07-20T06:13:42;100957.03;;;22.18;64.22
10712;BME280;5407;51.234;6.804;2023-07-20T06:16:10;100969.84;;;21.98;65.20
10712;BME280;5407;51.234;6.804;2023-07-20T06:18:36;100964.56;;;22.14;64.41
10712;BME280;5407;51.234;6.804;2023-07-20T06:21:04;100964.94;;;22.13;64.03
10712;BME280;5407;51.234;6.804;2023-07-20T06:23:31;100970.66;;;21.95;64.17
10712;BME280;5407;51.234;6.804;2023-07-20T06:25:59;100973.19;;;22.13;63.59
10712;BME280;5407;51.234;6.804;2023-07-20T06:28:26;100977.78;;;21.89;64.77
10712;BME280;5407;51.234;6.804;2023-07-20T06:30:59;100976.22;;;21.92;64.74
10712;BME280;5407;51.234;6.804;2023-07-20T06:33:26;100979.34;;;21.90;64.25
10712;BME280;5407;51.234;6.804;2023-07-20T06:35:53;100977.84;;;21.86;64.09
10712;BME280;5407;51.234;6.804;2023-07-20T06:38:20;100977.63;;;22.03;63.65
10712;BME280;5407;51.234;6.804;2023-07-20T06:40:48;100977.56;;;22.10;62.96
10712;BME280;5407;51.234;6.804;2023-07-20T06:43:17;100976.13;;;21.99;63.39
10712;BME280;5407;51.234;6.804;2023-07-20T06:45:44;100976.22;;;21.92;63.35
10712;BME280;5407;51.234;6.804;2023-07-20T06:48:11;100975.34;;;21.98;63.40
10712;BME280;5407;51.234;6.804;2023-07-20T06:50:38;100969.06;;;21.98;62.84
10712;BME280;5407;51.234;6.804;2023-07-20T06:53:05;100975.59;;;21.77;63.66
10712;BME280;5407;51.234;6.804;2023-07-20T06:55:31;100981.84;;;21.78;63.98
10712;BME280;5407;51.234;6.804;2023-07-20T06:57:58;100974.22;;;21.92;63.39
10712;BME280;5407;51.234;6.804;2023-07-20T07:00:27;100978.34;;;21.74;63.42
10712;BME280;5407;51.234;6.804;2023-07-20T07:02:53;100983.53;;;21.68;62.94
10712;BME280;5407;51.234;6.804;2023-07-20T07:05:20;100988.06;;;21.85;62.06
10712;BME280;5407;51.234;6.804;2023-07-20T07:07:47;100987.31;;;21.81;61.64
10712;BME280;5407;51.234;6.804;2023-07-20T07:10:14;100990.69;;;21.55;62.69
10712;BME280;5407;51.234;6.804;2023-07-20T07:12:41;100988.13;;;21.78;62.70
10712;BME280;5407;51.234;6.804;2023-07-20T07:15:09;100995.72;;;22.01;61.61
10712;BME280;5407;51.234;6.804;2023-07-20T07:17:38;100986.06;;;22.19;60.82
10712;BME280;5407;51.234;6.804;2023-07-20T07:20:07;100998.00;;;22.09;61.33
10712;BME280;5407;51.234;6.804;2023-07-20T07:22:34;100995.06;;;22.23;60.50
10712;BME280;5407;51.234;6.804;2023-07-20T07:25:01;100995.16;;;22.46;60.01
10712;BME280;5407;51.234;6.804;2023-07-20T07:27:28;100994.34;;;22.49;59.06
10712;BME280;5407;51.234;6.804;2023-07-20T07:29:55;100997.78;;;22.83;57.62
10712;BME280;5407;51.234;6.804;2023-07-20T07:32:22;100991.13;;;23.07;56.86
10712;BME280;5407;51.234;6.804;2023-07-20T07:34:52;100995.63;;;22.94;56.92
10712;BME280;5407;51.234;6.804;2023-07-20T07:37:24;101003.16;;;22.90;56.00
10712;BME280;5407;51.234;6.804;2023-07-20T07:39:51;100999.94;;;22.95;54.68
10712;BME280;5407;51.234;6.804;2023-07-20T07:42:17;100996.78;;;22.96;55.12
10712;BME280;5407;51.234;6.804;2023-07-20T07:44:45;101007.13;;;23.15;55.54
10712;BME280;5407;51.234;6.804;2023-07-20T07:47:12;101003.25;;;23.13;54.68
10712;BME280;5407;51.234;6.804;2023-07-20T07:49:39;101003.16;;;22.90;55.86
10712;BME280;5407;51.234;6.804;2023-07-20T07:52:07;101014.28;;;22.83;55.39
10712;BME280;5407;51.234;6.804;2023-07-20T07:54:34;101013.31;;;22.70;55.11
10712;BME280;5407;51.234;6.804;2023-07-20T07:57:01;101009.03;;;22.65;54.59
10712;BME280;5407;51.234;6.804;2023-07-20T07:59:28;101013.66;;;22.72;54.39
10712;BME280;5407;51.234;6.804;2023-07-20T08:01:56;101018.84;;;22.93;55.20
10712;BME280;5407;51.234;6.804;2023-07-20T08:04:24;101014.19;;;23.16;53.68
10712;BME280;5407;51.234;6.804;2023-07-20T08:06:51;101022.59;;;23.06;53.50
10712;BME280;5407;51.234;6.804;2023-07-20T08:09:19;101013.31;;;23.46;52.60
10712;BME280;5407;51.234;6.804;2023-07-20T08:11:46;101025.63;;;23.61;52.29
10712;BME280;5407;51.234;6.804;2023-07-20T08:14:13;101024.06;;;23.60;51.96
10712;BME280;5407;51.234;6.804;2023-07-20T08:16:40;101024.69;;;23.48;52.63
10712;BME280;5407;51.234;6.804;2023-07-20T08:19:08;101030.00;;;22.56;54.78
10712;BME280;5407;51.234;6.804;2023-07-20T08:21:35;101025.34;;;22.79;55.40
10712;BME280;5407;51.234;6.804;2023-07-20T08:24:02;101029.19;;;22.59;55.05
10712;BME280;5407;51.234;6.804;2023-07-20T08:26:31;101025.94;;;22.37;56.33
10712;BME280;5407;51.234;6.804;2023-07-20T08:28:58;101027.44;;;22.42;55.80
10712;BME280;5407;51.234;6.804;2023-07-20T08:31:24;101027.59;;;22.28;57.10
10712;BME280;5407;51.234;6.804;2023-07-20T08:33:53;101029.13;;;22.29;55.22
10712;BME280;5407;51.234;6.804;2023-07-20T08:36:22;101028.84;;;22.20;54.74
10712;BME280;5407;51.234;6.804;2023-07-20T08:38:49;101024.22;;;22.47;53.56
10712;BME280;5407;51.234;6.804;2023-07-20T08:41:16;101027.44;;;22.42;52.30
10712;BME280;5407;51.234;6.804;2023-07-20T08:43:46;101027.09;;;22.66;53.52
10712;BME280;5407;51.234;6.804;2023-07-20T08:46:13;101023.06;;;22.74;52.77
10712;BME280;5407;51.234;6.804;2023-07-20T08:48:42;101029.44;;;23.21;50.93
10712;BME280;5407;51.234;6.804;2023-07-20T08:51:10;101033.59;;;23.55;50.15
10712;BME280;5407;51.234;6.804;2023-07-20T08:53:38;101027.88;;;23.66;50.00
10712;BME280;5407;51.234;6.804;2023-07-20T08:56:06;101035.44;;;23.84;48.91
10712;BME280;5407;51.234;6.804;2023-07-20T08:58:36;101033.28;;;23.73;48.83
10712;BME280;5407;51.234;6.804;2023-07-20T09:01:06;101032.75;;;23.58;49.31
10712;BME280;5407;51.234;6.804;2023-07-20T09:03:33;101034.28;;;23.59;48.92
10712;BME280;5407;51.234;6.804;2023-07-20T09:06:00;101036.94;;;23.89;47.86
10712;BME280;5407;51.234;6.804;2023-07-20T09:08:27;101028.41;;;23.80;48.30
10712;BME280;5407;51.234;6.804;2023-07-20T09:10:53;101021.25;;;24.05;47.97
10712;BME280;5407;51.234;6.804;2023-07-20T09:13:20;101036.28;;;24.01;48.11
10712;BME280;5407;51.234;6.804;2023-07-20T09:15:53;101038.81;;;24.15;46.83
10712;BME280;5407;51.234;6.804;2023-07-20T09:18:26;101032.78;;;24.00;47.10
10712;BME280;5407;51.234;6.804;2023-07-20T09:20:58;101028.53;;;23.96;47.33
10712;BME280;5407;51.234;6.804;2023-07-20T09:23:30;101028.72;;;23.63;47.55
10712;BME280;5407;51.234;6.804;2023-07-20T09:25:57;101033.13;;;23.79;46.95
10712;BME280;5407;51.234;6.804;2023-07-20T09:28:24;101027.59;;;23.83;46.18
10712;BME280;5407;51.234;6.804;2023-07-20T09:30:53;101023.69;;;23.80;47.21
10712;BME280;5407;51.234;6.804;2023-07-20T09:33:21;101028.69;;;24.08;45.67
10712;BME280;5407;51.234;6.804;2023-07-20T09:35:50;101032.84;;;23.97;46.36
10712;BME280;5407;51.234;6.804;2023-07-20T09:38:17;101034.97;;;24.09;46.95
10712;BME280;5407;51.234;6.804;2023-07-20T09:40:44;101024.59;;;23.74;47.97
10712;BME280;5407;51.234;6.804;2023-07-20T09:43:11;101029.44;;;23.67;47.96
10712;BME280;5407;51.234;6.804;2023-07-20T09:45:40;101023.88;;;23.70;47.84
10712;BME280;5407;51.234;6.804;2023-07-20T09:48:08;101020.81;;;23.65;47.91
10712;BME280;5407;51.234;6.804;2023-07-20T09:50:39;101019.50;;;23.73;47.73
10712;BME280;5407;51.234;6.804;2023-07-20T09:53:11;101015.94;;;24.14;45.33
10712;BME280;5407;51.234;6.804;2023-07-20T09:55:40;101016.66;;;24.38;45.74
10712;BME280;5407;51.234;6.804;2023-07-20T09:58:08;101016.38;;;24.52;45.04
10712;BME280;5407;51.234;6.804;2023-07-20T10:00:36;101014.16;;;24.63;44.79
10712;BME280;5407;51.234;6.804;2023-07-20T10:03:04;101009.69;;;24.49;44.91
10712;BME280;5407;51.234;6.804;2023-07-20T10:05:33;101008.19;;;24.09;45.70
10712;BME280;5407;51.234;6.804;2023-07-20T10:08:01;101017.59;;;23.92;46.31
10712;BME280;5407;51.234;6.804;2023-07-20T10:10:34;101024.84;;;23.83;46.35
10712;BME280;5407;51.234;6.804;2023-07-20T10:13:03;101020.13;;;24.03;46.05
10712;BME280;5407;51.234;6.804;2023-07-20T10:15:36;101027.25;;;24.39;44.47
10712;BME280;5407;51.234;6.804;2023-07-20T10:18:07;101023.16;;;24.47;44.13
10712;BME280;5407;51.234;6.804;2023-07-20T10:20:36;101008.09;;;24.52;42.87
10712;BME280;5407;51.234;6.804;2023-07-20T10:23:07;101021.53;;;24.85;42.51
10712;BME280;5407;51.234;6.804;2023-07-20T10:25:36;101010.50;;;24.85;41.86
10712;BME280;5407;51.234;6.804;2023-07-20T10:28:05;101017.56;;;24.86;41.83
10712;BME280;5407;51.234;6.804;2023-07-20T10:30:33;101015.00;;;24.95;41.92
10712;BME280;5407;51.234;6.804;2023-07-20T10:33:01;101012.16;;;25.15;41.47
10712;BME280;5407;51.234;6.804;2023-07-20T10:35:29;101007.94;;;25.26;41.52
10712;BME280;5407;51.234;6.804;2023-07-20T10:38:00;101012.19;;;25.75;40.25
10712;BME280;5407;51.234;6.804;2023-07-20T10:40:29;101011.16;;;25.69;39.99
10712;BME280;5407;51.234;6.804;2023-07-20T10:43:00;101004.88;;;25.97;39.43
10712;BME280;5407;51.234;6.804;2023-07-20T10:45:47;101007.53;;;26.29;38.65
10712;BME280;5407;51.234;6.804;2023-07-20T10:48:16;101000.16;;;26.10;38.40
10712;BME280;5407;51.234;6.804;2023-07-20T10:50:45;100993.47;;;26.23;38.02
10712;BME280;5407;51.234;6.804;2023-07-20T10:53:14;100989.00;;;25.56;39.66
10712;BME280;5407;51.234;6.804;2023-07-20T10:55:42;100992.19;;;25.55;38.74
10712;BME280;5407;51.234;6.804;2023-07-20T10:58:12;100993.88;;;25.81;39.21
10712;BME280;5407;51.234;6.804;2023-07-20T11:00:57;100988.56;;;26.15;37.28
10712;BME280;5407;51.234;6.804;2023-07-20T11:03:32;100983.63;;;26.35;37.91
10712;BME280;5407;51.234;6.804;2023-07-20T11:06:31;100983.25;;;26.61;36.73
10712;BME280;5407;51.234;6.804;2023-07-20T11:09:05;100985.44;;;26.00;38.08
10712;BME280;5407;51.234;6.804;2023-07-20T11:11:34;100977.69;;;26.49;37.09
10712;BME280;5407;51.234;6.804;2023-07-20T11:14:04;100971.94;;;26.81;36.08
10712;BME280;5407;51.234;6.804;2023-07-20T11:16:39;100979.78;;;26.45;35.48
10712;BME280;5407;51.234;6.804;2023-07-20T11:19:14;100980.75;;;25.85;36.77
10712;BME280;5407;51.234;6.804;2023-07-20T11:21:43;100980.88;;;25.94;36.68
10712;BME280;5407;51.234;6.804;2023-07-20T11:24:10;100976.50;;;25.80;37.73
10712;BME280;5407;51.234;6.804;2023-07-20T11:26:47;100978.16;;;26.06;37.98
10712;BME280;5407;51.234;6.804;2023-07-20T11:29:16;100971.91;;;26.31;37.67
10712;BME280;5407;51.234;6.804;2023-07-20T11:31:45;100978.78;;;26.39;36.56
10712;BME280;5407;51.234;6.804;2023-07-20T11:34:15;100976.56;;;25.93;38.63
10712;BME280;5407;51.234;6.804;2023-07-20T11:36:43;100972.03;;;25.26;38.90
10712;BME280;5407;51.234;6.804;2023-07-20T11:39:11;100977.44;;;25.74;38.27
10712;BME280;5407;51.234;6.804;2023-07-20T11:41:38;100969.06;;;26.47;37.12
10712;BME280;5407;51.234;6.804;2023-07-20T11:44:10;100973.66;;;27.92;34.13
10712;BME280;5407;51.234;6.804;2023-07-20T11:46:41;100964.56;;;27.70;32.80
10712;BME280;5407;51.234;6.804;2023-07-20T11:49:08;100977.91;;;29.45;30.83
10712;BME280;5407;51.234;6.804;2023-07-20T11:51:35;100975.88;;;29.73;30.17
10712;BME280;5407;51.234;6.804;2023-07-20T11:54:05;100974.97;;;30.94;28.37
10712;BME280;5407;51.234;6.804;2023-07-20T11:56:32;100966.06;;;32.04;26.89
10712;BME280;5407;51.234;6.804;2023-07-20T11:59:00;100960.84;;;30.24;29.21
10712;BME280;5407;51.234;6.804;2023-07-20T12:01:29;100963.56;;;29.47;30.08
10712;BME280;5407;51.234;6.804;2023-07-20T12:03:59;100959.97;;;28.19;32.63
10712;BME280;5407;51.234;6.804;2023-07-20T12:06:28;100962.69;;;27.67;34.14
10712;BME280;5407;51.234;6.804;2023-07-20T12:08:56;100952.66;;;26.89;35.29
10712;BME280;5407;51.234;6.804;2023-07-20T12:11:34;100963.38;;;26.25;36.04
10712;BME280;5407;51.234;6.804;2023-07-20T12:14:01;100956.72;;;26.35;35.36
10712;BME280;5407;51.234;6.804;2023-07-20T12:16:29;100960.75;;;25.93;36.71
10712;BME280;5407;51.234;6.804;2023-07-20T12:19:01;100949.09;;;27.14;35.07
10712;BME280;5407;51.234;6.804;2023-07-20T12:21:29;100957.81;;;29.86;30.57
10712;BME280;5407;51.234;6.804;2023-07-20T12:23:57;100958.94;;;31.36;27.98
10712;BME280;5407;51.234;6.804;2023-07-20T12:26:24;100959.56;;;32.36;27.07
10712;BME280;5407;51.234;6.804;2023-07-20T12:28:51;100958.38;;;31.23;28.11
10712;BME280;5407;51.234;6.804;2023-07-20T12:31:19;100947.44;;;28.75;31.73
10712;BME280;5407;51.234;6.804;2023-07-20T12:33:46;100943.78;;;28.48;31.38
10712;BME280;5407;51.234;6.804;2023-07-20T12:36:15;100947.41;;;28.06;32.61
10712;BME280;5407;51.234;6.804;2023-07-20T12:38:42;100945.63;;;29.57;30.82
10712;BME280;5407;51.234;6.804;2023-07-20T12:41:10;100944.66;;;29.33;31.18
10712;BME280;5407;51.234;6.804;2023-07-20T12:43:39;100940.75;;;28.55;32.14
10712;BME280;5407;51.234;6.804;2023-07-20T12:46:07;100947.66;;;28.90;31.84
10712;BME280;5407;51.234;6.804;2023-07-20T12:48:34;100953.31;;;31.22;28.79
10712;BME280;5407;51.234;6.804;2023-07-20T12:51:02;100951.78;;;32.74;26.61
10712;BME280;5407;51.234;6.804;2023-07-20T12:53:31;100948.22;;;31.35;28.00
10712;BME280;5407;51.234;6.804;2023-07-20T12:55:58;100943.13;;;30.86;28.72
10712;BME280;5407;51.234;6.804;2023-07-20T12:58:25;100949.81;;;31.03;28.59
10712;BME280;5407;51.234;6.804;2023-07-20T13:00:53;100933.88;;;29.53;30.15
10712;BME280;5407;51.234;6.804;2023-07-20T13:03:20;100938.28;;;28.96;31.09
10712;BME280;5407;51.234;6.804;2023-07-20T13:05:47;100934.72;;;27.40;33.31
10712;BME280;5407;51.234;6.804;2023-07-20T13:08:14;100932.06;;;27.03;34.92
10712;BME280;5407;51.234;6.804;2023-07-20T13:10:43;100931.78;;;26.51;35.27